createdAt,value
2019-04-26T00:02:51.687Z,98148.00
2019-04-26T00:07:58.525Z,98130.77
2019-04-26T00:13:38.999Z,98130.30
2019-04-26T00:18:47.126Z,98123.46
2019-04-26T00:23:57.313Z,98120.70
2019-04-26T00:29:03.963Z,98117.71
2019-04-26T00:34:09.550Z,98119.47
2019-04-26T00:39:16.093Z,98117.80
2019-04-26T00:44:22.915Z,98116.25
2019-04-26T00:49:42.953Z,98114.34
2019-04-26T00:54:41.165Z,98105.95
2019-04-26T00:59:47.471Z,98103.42
2019-04-26T01:04:54.858Z,98091.95
2019-04-26T01:10:02.899Z,98097.97
2019-04-26T01:15:09.157Z,98096.65
2019-04-26T01:20:16.132Z,98088.30
2019-04-26T01:26:03.662Z,98088.47
2019-04-26T01:31:13.778Z,98077.23
2019-04-26T01:36:20.612Z,98067.36
2019-04-26T01:41:36.669Z,98056.25
2019-04-26T01:46:44.903Z,98055.47
2019-04-26T01:51:59.235Z,98062.04
2019-04-26T01:57:07.612Z,98060.14
2019-04-26T02:02:27.879Z,98049.32
2019-04-26T02:07:40.346Z,98052.17
2019-04-26T02:12:49.570Z,98048.98
2019-04-26T02:17:57.522Z,98047.31
2019-04-26T02:23:09.037Z,98035.25
2019-04-26T02:28:16.247Z,98033.48
2019-04-26T02:33:21.716Z,98034.48
2019-04-26T02:38:29.279Z,98031.78
2019-04-26T02:43:37.227Z,98028.98
2019-04-26T02:49:22.261Z,98033.20
2019-04-26T02:54:45.983Z,98024.07
2019-04-26T02:59:55.183Z,98022.61
2019-04-26T03:05:06.580Z,98020.23
2019-04-26T03:10:14.113Z,98025.89
2019-04-26T03:15:39.376Z,98021.58
2019-04-26T03:20:47.745Z,98015.00
2019-04-26T03:26:33.687Z,98018.22
2019-04-26T03:32:18.823Z,98020.70
2019-04-26T03:37:50.631Z,98017.10
2019-04-26T03:43:19.458Z,98022.83
2019-04-26T03:48:36.025Z,98029.55
2019-04-26T03:53:57.651Z,98025.30
2019-04-26T03:59:32.985Z,98025.28
2019-04-26T04:04:48.519Z,98017.02
2019-04-26T04:10:00.176Z,98016.12
2019-04-26T04:15:11.154Z,98012.13
2019-04-26T04:20:50.331Z,98019.39
2019-04-26T04:25:59.740Z,98022.80
2019-04-26T04:31:16.997Z,98023.31
2019-04-26T04:36:27.289Z,98019.33
2019-04-26T04:41:55.980Z,98015.16
2019-04-26T04:47:24.144Z,98016.83
2019-04-26T04:52:50.268Z,98021.62
2019-04-26T04:58:17.134Z,98021.06
2019-04-26T05:03:51.078Z,98021.22
2019-04-26T05:09:00.769Z,98028.08
2019-04-26T05:14:31.831Z,98024.83
2019-04-26T05:20:07.377Z,98024.94
2019-04-26T05:26:11.448Z,98023.45
2019-04-26T05:31:32.953Z,98019.80
2019-04-26T05:36:59.909Z,98025.94
2019-04-26T05:49:45.862Z,98014.58
2019-04-26T05:55:27.893Z,98014.52
2019-04-26T06:01:20.128Z,98016.11
2019-04-26T06:06:45.072Z,98019.39
2019-04-26T06:12:02.325Z,98012.73
2019-04-26T06:17:46.328Z,98018.52
2019-04-26T06:23:10.984Z,98011.80
2019-04-26T06:28:42.410Z,98016.59
2019-04-26T06:34:06.800Z,98006.15
2019-04-26T06:39:27.878Z,98016.45
2019-04-26T06:44:58.348Z,98023.73
2019-04-26T06:50:21.728Z,98025.69
2019-04-26T06:55:39.998Z,98025.14
2019-04-26T07:01:16.584Z,98043.73
2019-04-26T07:06:34.939Z,98035.71
2019-04-26T07:12:35.193Z,98047.69
2019-04-26T07:18:22.129Z,98041.67
2019-04-26T07:24:11.208Z,98044.22
2019-04-26T07:29:59.106Z,98038.78
2019-04-26T07:35:20.996Z,98050.60
2019-04-26T07:41:29.373Z,98046.14
2019-04-26T07:47:41.093Z,98046.56
2019-04-26T07:53:23.298Z,98047.45
2019-04-26T07:58:56.161Z,98057.19
2019-04-26T08:04:10.008Z,98053.80
2019-04-26T08:09:27.737Z,98054.32
2019-04-26T08:15:01.905Z,98055.31
2019-04-26T08:20:53.011Z,98061.19
2019-04-26T08:26:09.207Z,98063.53
2019-04-26T08:31:23.173Z,98082.06
2019-04-26T08:36:44.876Z,98077.17
2019-04-26T08:42:01.700Z,98074.21
2019-04-26T08:47:41.852Z,98082.00
2019-04-26T08:53:04.875Z,98080.53
2019-04-26T08:58:21.287Z,98082.33
2019-04-26T09:04:00.831Z,98081.59
2019-04-26T09:09:27.480Z,98081.64
2019-04-26T09:14:37.917Z,98089.54
2019-04-26T09:19:54.963Z,98090.53
2019-04-26T09:25:24.359Z,98090.58
2019-04-26T09:30:47.675Z,98087.92
2019-04-26T09:35:59.428Z,98088.41
2019-04-26T09:41:12.895Z,98080.50
2019-04-26T09:46:41.152Z,98079.41
2019-04-26T09:51:57.632Z,98087.16
2019-04-26T09:57:20.393Z,98089.08
2019-04-26T10:02:35.557Z,98082.09
2019-04-26T10:07:41.938Z,98078.88
2019-04-26T10:13:09.788Z,98096.13
2019-04-26T10:18:28.235Z,98091.49
2019-04-26T10:23:43.779Z,98081.86
2019-04-26T10:28:56.731Z,98079.47
2019-04-26T10:34:03.023Z,98083.78
2019-04-26T10:39:11.332Z,98066.95
2019-04-26T10:44:16.861Z,98074.98
2019-04-26T10:49:43.339Z,98066.24
2019-04-26T10:54:53.576Z,98069.83
2019-04-26T11:00:01.936Z,98070.73
2019-04-26T11:05:11.593Z,98056.33
2019-04-26T11:10:48.114Z,98052.83
2019-04-26T11:15:54.172Z,98058.30
2019-04-26T11:21:11.140Z,98061.72
2019-04-26T11:26:23.704Z,98068.56
2019-04-26T11:31:37.792Z,98062.59
2019-04-26T11:36:54.961Z,98051.86
2019-04-26T11:42:20.652Z,98048.55
2019-04-26T11:47:54.250Z,98041.76
2019-04-26T11:52:58.023Z,98055.32
2019-04-26T11:58:05.765Z,98049.39
2019-04-26T12:03:21.214Z,98051.78
2019-04-26T12:08:48.738Z,98044.04
2019-04-26T12:14:04.068Z,98035.34
2019-04-26T12:19:19.552Z,98031.67
2019-04-26T12:24:34.661Z,98023.06
2019-04-26T12:29:58.504Z,98037.31
2019-04-26T12:35:11.497Z,98027.68
2019-04-26T12:40:24.652Z,98027.00
2019-04-26T12:45:57.539Z,98048.77
2019-04-26T12:51:13.479Z,98034.22
2019-04-26T12:56:26.685Z,98044.52
2019-04-26T13:01:42.561Z,98033.47
2019-04-26T13:07:06.705Z,98039.73
2019-04-26T13:12:29.858Z,98046.89
2019-04-26T13:17:48.890Z,98049.36
2019-04-26T13:23:02.791Z,98051.06
2019-04-26T13:28:09.898Z,98046.53
2019-04-26T13:33:26.928Z,98052.67
2019-04-26T13:38:43.580Z,98042.30
2019-04-26T13:44:01.285Z,98055.30
2019-04-26T13:49:32.438Z,98049.58
2019-04-26T13:54:51.185Z,98054.30
2019-04-26T14:00:07.629Z,98052.99
2019-04-26T14:05:26.675Z,98051.52
2019-04-26T14:10:34.000Z,98057.53
2019-04-26T14:15:43.286Z,98058.43
2019-04-26T14:20:46.735Z,98053.98
2019-04-26T14:26:25.071Z,98052.86
2019-04-26T14:31:36.332Z,98052.77
2019-04-26T14:37:05.563Z,98062.03
2019-04-26T14:42:09.342Z,98070.75
2019-04-26T14:47:30.537Z,98056.70
2019-04-26T14:52:41.803Z,98057.84
2019-04-26T14:57:55.880Z,98058.98
2019-04-26T15:03:24.128Z,98056.58
2019-04-26T15:08:32.605Z,98060.64
2019-04-26T15:13:40.423Z,98053.69
2019-04-26T15:18:46.233Z,98051.83
2019-04-26T15:23:55.428Z,98049.66
2019-04-26T15:28:58.648Z,98055.61
2019-04-26T15:34:04.140Z,98069.27
2019-04-26T15:39:23.099Z,98067.15
2019-04-26T15:44:33.559Z,98067.41
2019-04-26T15:49:47.207Z,98076.77
2019-04-26T15:54:58.430Z,98083.08
2019-04-26T15:59:59.524Z,98076.56
2019-04-26T16:05:05.329Z,98091.36
2019-04-26T16:10:13.199Z,98101.61
2019-04-26T16:15:18.836Z,98092.12
2019-04-26T16:20:24.467Z,98083.86
2019-04-26T16:25:34.364Z,98097.44
2019-04-26T16:30:47.578Z,98097.05
2019-04-26T16:35:53.050Z,98115.59
2019-04-26T16:40:58.489Z,98119.97
2019-04-26T16:46:04.210Z,98131.70
2019-04-26T16:51:10.059Z,98137.11
2019-04-26T16:56:16.587Z,98130.27
2019-04-26T17:01:23.471Z,98115.30
2019-04-26T17:06:29.437Z,98141.17
2019-04-26T17:11:39.288Z,98145.27
2019-04-26T17:16:44.383Z,98137.64
2019-04-26T17:22:14.103Z,98124.34
2019-04-26T17:27:22.683Z,98138.91
2019-04-26T17:32:35.223Z,98162.42
2019-04-26T17:37:47.181Z,98198.84
2019-04-26T17:42:53.246Z,98183.86
2019-04-26T17:48:01.335Z,98189.09
2019-04-26T17:53:10.773Z,98183.24
2019-04-26T17:58:33.631Z,98202.48
2019-04-26T18:03:38.894Z,98222.42
2019-04-26T18:08:51.205Z,98253.23
2019-04-26T18:13:53.253Z,98257.50
2019-04-26T18:19:24.138Z,98269.44
2019-04-26T18:24:32.267Z,98293.16
2019-04-26T18:29:37.569Z,98309.38
2019-04-26T18:34:44.373Z,98290.69
2019-04-26T18:39:49.952Z,98277.77
2019-04-26T18:44:57.650Z,98309.23
2019-04-26T18:50:03.043Z,98310.48
2019-04-26T18:55:21.565Z,98298.91
2019-04-26T19:00:33.715Z,98300.98
2019-04-26T19:05:39.195Z,98341.65
2019-04-26T19:10:44.704Z,98368.72
2019-04-26T19:15:57.362Z,98388.43
2019-04-26T19:21:38.954Z,98392.39
2019-04-26T19:26:44.094Z,98422.61
2019-04-26T19:31:56.709Z,98425.31
2019-04-26T19:37:03.260Z,98416.41
2019-04-26T19:42:08.474Z,98463.33
2019-04-26T19:47:45.343Z,98479.72
2019-04-26T19:53:01.754Z,98474.63
2019-04-26T19:58:16.011Z,98510.33
2019-04-26T20:03:19.159Z,98542.03
2019-04-26T20:08:29.495Z,98541.85
2019-04-26T20:13:35.076Z,98528.88
2019-04-26T20:18:41.675Z,98526.15
2019-04-26T20:23:48.758Z,98519.94
2019-04-26T20:28:55.235Z,98539.77
2019-04-26T20:34:01.636Z,98555.44
2019-04-26T20:39:12.517Z,98570.48
2019-04-26T20:44:23.893Z,98558.05
2019-04-26T20:49:25.284Z,98575.14
2019-04-26T20:54:31.784Z,98593.48
2019-04-26T20:59:37.590Z,98609.60
2019-04-26T21:04:46.026Z,98601.60
2019-04-26T21:09:52.068Z,98565.75
2019-04-26T21:14:57.610Z,98589.11
2019-04-26T21:20:03.500Z,98611.42
2019-04-26T21:25:15.368Z,98611.38
2019-04-26T21:30:48.965Z,98591.16
2019-04-26T21:36:13.601Z,98602.99
2019-04-26T21:41:23.576Z,98593.41
2019-04-26T21:46:33.934Z,98598.91
2019-04-26T21:51:40.304Z,98611.72
2019-04-26T21:56:49.655Z,98606.72
2019-04-26T22:01:59.098Z,98590.44
2019-04-26T22:07:05.198Z,98614.01
2019-04-26T22:12:13.052Z,98602.30
2019-04-26T22:17:24.342Z,98603.42
2019-04-26T22:22:41.522Z,98603.47
2019-04-26T22:27:45.399Z,98596.69
2019-04-26T22:32:54.632Z,98606.44
2019-04-26T22:37:58.494Z,98601.11
2019-04-26T22:43:20.628Z,98578.84
2019-04-26T22:48:31.163Z,98584.37
2019-04-26T22:53:36.672Z,98601.80
2019-04-26T22:58:44.014Z,98611.72
2019-04-26T23:03:50.175Z,98599.22
2019-04-26T23:08:55.893Z,98603.34
2019-04-26T23:14:35.339Z,98607.84
2019-04-26T23:20:03.020Z,98609.12
2019-04-26T23:25:08.863Z,98611.28
2019-04-26T23:30:15.879Z,98610.98
2019-04-26T23:35:21.696Z,98628.96
2019-04-26T23:40:28.930Z,98630.41
2019-04-26T23:45:36.489Z,98635.78
2019-04-26T23:50:42.992Z,98621.42
2019-04-26T23:55:48.764Z,98605.73
